createdAt,value
2017-11-09T00:04:23.821Z,77.53
2017-11-09T00:06:50.852Z,70.93
2017-11-09T00:09:17.361Z,74.57
2017-11-09T00:11:43.705Z,80.03
2017-11-09T00:14:10.041Z,84.00
2017-11-09T00:16:36.354Z,74.50
2017-11-09T00:19:02.633Z,74.23
2017-11-09T00:21:29.903Z,83.00
2017-11-09T00:23:56.187Z,78.07
2017-11-09T00:26:22.483Z,69.90
2017-11-09T00:28:48.841Z,76.23
2017-11-09T00:31:15.164Z,77.47
2017-11-09T00:33:41.438Z,75.47
2017-11-09T00:36:07.766Z,70.77
2017-11-09T00:38:34.840Z,75.50
2017-11-09T00:41:01.154Z,72.40
2017-11-09T00:43:27.545Z,72.77
2017-11-09T00:45:53.909Z,69.37
2017-11-09T00:48:20.193Z,74.80
2017-11-09T00:50:46.525Z,68.13
2017-11-09T00:53:12.847Z,85.23
2017-11-09T00:55:39.141Z,77.67
2017-11-09T00:58:05.441Z,82.30
2017-11-09T01:00:31.756Z,84.20
2017-11-09T01:02:58.043Z,72.90
2017-11-09T01:05:24.373Z,58.30
2017-11-09T01:07:50.669Z,56.17
2017-11-09T01:10:17.757Z,59.80
2017-11-09T01:12:44.079Z,56.07
2017-11-09T01:15:17.441Z,60.73
2017-11-09T01:17:44.481Z,56.43
2017-11-09T01:20:10.765Z,85.03
2017-11-09T01:22:37.053Z,79.40
2017-11-09T01:25:03.361Z,77.43
2017-11-09T01:27:29.690Z,83.13
2017-11-09T01:29:56.738Z,86.10
2017-11-09T01:32:23.822Z,89.87
2017-11-09T01:34:50.113Z,90.90
2017-11-09T01:37:16.408Z,81.57
2017-11-09T01:39:42.692Z,87.00
2017-11-09T01:42:09.897Z,88.97
2017-11-09T01:44:36.181Z,85.20
2017-11-09T01:47:03.239Z,98.27
2017-11-09T01:49:29.529Z,85.80
2017-11-09T01:51:55.853Z,86.97
2017-11-09T01:54:22.177Z,90.33
2017-11-09T01:56:48.453Z,80.87
2017-11-09T01:59:14.753Z,91.87
2017-11-09T02:01:41.045Z,89.80
2017-11-09T02:04:07.386Z,91.93
2017-11-09T02:06:33.794Z,96.30
2017-11-09T02:09:00.096Z,78.63
2017-11-09T02:11:27.158Z,94.33
2017-11-09T02:13:53.443Z,91.90
2017-11-09T02:16:21.260Z,95.07
2017-11-09T02:18:47.741Z,99.33
2017-11-09T02:21:14.066Z,97.50
2017-11-09T02:23:40.383Z,88.53
2017-11-09T02:26:06.680Z,86.00
2017-11-09T02:28:32.981Z,102.83
2017-11-09T02:31:00.001Z,93.87
2017-11-09T02:33:26.362Z,94.33
2017-11-09T02:35:53.414Z,101.93
2017-11-09T02:38:20.453Z,96.77
2017-11-09T02:40:47.509Z,88.80
2017-11-09T02:43:14.557Z,90.10
2017-11-09T02:45:41.703Z,95.50
2017-11-09T02:48:08.721Z,91.97
2017-11-09T02:50:35.319Z,87.77
2017-11-09T02:53:01.612Z,97.90
2017-11-09T02:55:28.682Z,96.93
2017-11-09T02:57:54.974Z,89.30
2017-11-09T03:00:21.270Z,88.87
2017-11-09T03:02:47.582Z,95.50
2017-11-09T03:05:13.918Z,92.97
2017-11-09T03:07:40.286Z,89.17
2017-11-09T03:10:06.593Z,86.87
2017-11-09T03:12:32.890Z,94.23
2017-11-09T03:14:59.189Z,82.50
2017-11-09T03:17:25.598Z,86.67
2017-11-09T03:19:51.978Z,84.07
2017-11-09T03:22:18.294Z,87.77
2017-11-09T03:24:45.353Z,82.43
2017-11-09T03:27:11.765Z,108.43
2017-11-09T03:29:38.823Z,71.40
2017-11-09T03:32:05.887Z,91.00
2017-11-09T03:34:32.174Z,59.37
2017-11-09T03:36:58.454Z,69.03
2017-11-09T03:39:24.770Z,65.10
2017-11-09T03:41:51.092Z,59.33
2017-11-09T03:44:18.130Z,56.53
2017-11-09T03:46:45.170Z,58.73
2017-11-09T03:49:11.481Z,57.03
2017-11-09T03:51:37.759Z,58.03
2017-11-09T03:54:04.081Z,58.20
2017-11-09T03:56:30.376Z,57.03
2017-11-09T03:58:56.683Z,52.73
2017-11-09T04:01:22.965Z,52.07
2017-11-09T04:03:50.037Z,56.47
2017-11-09T04:06:16.323Z,62.43
2017-11-09T04:08:42.623Z,63.77
2017-11-09T04:11:08.923Z,74.13
2017-11-09T04:13:35.243Z,88.27
2017-11-09T04:16:01.562Z,92.73
2017-11-09T04:18:27.902Z,94.43
2017-11-09T04:20:54.201Z,87.90
2017-11-09T04:23:20.491Z,92.73
2017-11-09T04:25:46.813Z,97.07
2017-11-09T04:28:13.105Z,95.30
2017-11-09T04:30:40.153Z,102.07
2017-11-09T04:33:07.211Z,100.07
2017-11-09T04:35:33.543Z,87.37
2017-11-09T04:37:59.891Z,106.67
2017-11-09T04:40:26.357Z,91.20
2017-11-09T04:42:52.658Z,88.90
2017-11-09T04:45:18.976Z,104.70
2017-11-09T04:47:45.285Z,84.60
2017-11-09T04:50:12.308Z,100.43
2017-11-09T04:52:38.639Z,92.37
2017-11-09T04:55:05.725Z,91.53
2017-11-09T04:57:32.764Z,102.90
2017-11-09T04:59:59.783Z,87.20
2017-11-09T05:02:26.134Z,91.50
2017-11-09T05:04:53.193Z,92.23
2017-11-09T05:07:19.488Z,96.23
2017-11-09T05:09:45.938Z,89.83
2017-11-09T05:12:13.013Z,90.00
2017-11-09T05:14:39.309Z,99.47
2017-11-09T05:17:05.660Z,92.50
2017-11-09T05:19:31.954Z,106.20
2017-11-09T05:21:58.978Z,92.70
2017-11-09T05:24:25.314Z,92.00
2017-11-09T05:26:51.613Z,95.53
2017-11-09T05:29:17.930Z,108.70
2017-11-09T05:31:44.213Z,94.27
2017-11-09T05:34:10.541Z,99.13
2017-11-09T05:36:36.845Z,91.00
2017-11-09T05:39:03.158Z,98.53
2017-11-09T05:41:29.469Z,98.77
2017-11-09T05:43:56.545Z,93.97
2017-11-09T05:46:22.863Z,92.57
2017-11-09T05:48:49.413Z,95.20
2017-11-09T05:51:15.741Z,104.13
2017-11-09T05:53:42.055Z,93.83
2017-11-09T05:56:08.405Z,95.07
2017-11-09T05:58:34.749Z,87.80
2017-11-09T06:01:01.032Z,90.80
2017-11-09T06:03:28.113Z,96.20
2017-11-09T06:05:54.450Z,91.80
2017-11-09T06:08:20.832Z,127.33
2017-11-09T06:10:47.895Z,105.80
2017-11-09T06:13:14.926Z,96.23
2017-11-09T06:15:41.269Z,105.93
2017-11-09T06:18:08.289Z,97.37
2017-11-09T06:20:34.624Z,91.97
2017-11-09T06:23:00.930Z,88.57
2017-11-09T06:25:27.242Z,92.60
2017-11-09T06:27:53.612Z,104.90
2017-11-09T06:30:19.964Z,100.40
2017-11-09T06:32:47.038Z,101.93
2017-11-09T06:35:13.376Z,102.40
2017-11-09T06:37:39.662Z,99.67
2017-11-09T06:40:05.986Z,92.33
2017-11-09T06:42:33.254Z,92.90
2017-11-09T06:45:00.326Z,94.20
2017-11-09T06:47:26.623Z,93.23
2017-11-09T06:49:53.797Z,100.73
2017-11-09T06:52:20.115Z,99.90
2017-11-09T06:54:47.171Z,82.70
2017-11-09T06:57:14.230Z,96.30
2017-11-09T06:59:40.560Z,92.73
2017-11-09T07:02:06.879Z,95.37
2017-11-09T07:04:33.169Z,105.93
2017-11-09T07:06:59.506Z,89.03
2017-11-09T07:09:25.785Z,97.20
2017-11-09T07:11:52.110Z,93.87
2017-11-09T07:14:18.404Z,101.83
2017-11-09T07:16:44.725Z,87.77
2017-11-09T07:19:11.043Z,94.60
2017-11-09T07:21:37.365Z,92.63
2017-11-09T07:24:03.744Z,91.93
2017-11-09T07:26:30.779Z,86.87
2017-11-09T07:28:57.886Z,85.50
2017-11-09T07:31:24.228Z,89.27
2017-11-09T07:33:50.537Z,79.43
2017-11-09T07:36:16.878Z,90.23
2017-11-09T07:38:43.241Z,86.17
2017-11-09T07:41:09.734Z,76.70
2017-11-09T07:43:36.026Z,84.67
2017-11-09T07:46:03.085Z,98.70
2017-11-09T07:48:29.398Z,87.83
2017-11-09T07:50:56.488Z,80.50
2017-11-09T07:53:22.781Z,84.50
2017-11-09T07:55:49.915Z,91.17
2017-11-09T07:58:16.224Z,92.63
2017-11-09T08:00:43.988Z,85.17
2017-11-09T08:03:10.333Z,89.70
2017-11-09T08:05:38.092Z,73.13
2017-11-09T08:08:04.425Z,80.23
2017-11-09T08:10:30.973Z,79.57
2017-11-09T08:12:58.005Z,85.73
2017-11-09T08:15:24.321Z,79.33
2017-11-09T08:17:50.671Z,77.40
2017-11-09T08:20:17.010Z,88.67
2017-11-09T08:22:43.330Z,87.10
2017-11-09T08:25:15.062Z,77.50
2017-11-09T08:27:46.177Z,86.13
2017-11-09T08:30:15.332Z,83.73
2017-11-09T08:32:44.285Z,82.70
2017-11-09T08:35:10.630Z,82.40
2017-11-09T08:37:36.933Z,81.33
2017-11-09T08:40:03.219Z,71.63
2017-11-09T08:42:30.290Z,85.13
2017-11-09T08:44:56.610Z,83.33
2017-11-09T08:47:23.727Z,77.07
2017-11-09T08:49:50.063Z,80.43
2017-11-09T08:52:16.364Z,75.43
2017-11-09T08:54:42.674Z,82.30
2017-11-09T08:57:08.965Z,78.43
2017-11-09T08:59:36.029Z,72.07
2017-11-09T09:02:03.085Z,69.50
2017-11-09T09:04:29.401Z,72.77
2017-11-09T09:06:55.718Z,68.60
2017-11-09T09:09:22.017Z,68.40
2017-11-09T09:11:48.326Z,79.37
2017-11-09T09:14:14.634Z,78.83
2017-11-09T09:16:40.973Z,70.80
2017-11-09T09:19:14.147Z,72.57
2017-11-09T09:21:45.534Z,75.10
2017-11-09T09:24:14.753Z,66.80
2017-11-09T09:26:41.046Z,74.57
2017-11-09T09:32:18.043Z,67.03
2017-11-09T09:37:55.074Z,62.90
2017-11-09T09:40:23.533Z,63.90
2017-11-09T09:42:49.924Z,66.77
2017-11-09T09:45:16.282Z,69.73
2017-11-09T09:47:42.659Z,70.00
2017-11-09T09:50:08.946Z,62.83
2017-11-09T09:52:35.361Z,68.50
2017-11-09T09:55:01.678Z,60.17
2017-11-09T09:57:28.715Z,70.90
2017-11-09T09:59:55.042Z,77.47
2017-11-09T10:02:21.340Z,82.60
2017-11-09T10:04:47.651Z,80.50
2017-11-09T10:07:14.015Z,84.30
2017-11-09T10:09:40.339Z,82.83
2017-11-09T10:12:06.656Z,76.27
2017-11-09T10:14:33.062Z,90.67
2017-11-09T10:16:59.365Z,79.40
2017-11-09T10:19:26.429Z,72.00
2017-11-09T10:21:52.726Z,89.23
2017-11-09T10:24:19.185Z,74.53
2017-11-09T10:26:46.257Z,80.83
2017-11-09T10:29:12.594Z,78.10
2017-11-09T10:31:38.932Z,94.30
2017-11-09T10:34:05.255Z,88.37
2017-11-09T10:36:31.564Z,76.57
2017-11-09T10:38:57.890Z,75.53
2017-11-09T10:41:24.242Z,80.77
2017-11-09T10:43:50.590Z,89.00
2017-11-09T10:46:16.894Z,80.73
2017-11-09T10:48:43.225Z,86.37
2017-11-09T10:51:09.573Z,70.93
2017-11-09T10:53:36.007Z,81.07
2017-11-09T10:56:02.289Z,69.77
2017-11-09T10:58:28.591Z,76.60
2017-11-09T11:00:54.874Z,75.97
2017-11-09T11:03:21.298Z,79.60
2017-11-09T11:05:47.635Z,80.13
2017-11-09T11:08:14.153Z,80.00
2017-11-09T11:10:41.185Z,77.10
2017-11-09T11:13:08.300Z,78.90
2017-11-09T11:15:34.597Z,75.50
2017-11-09T11:18:00.885Z,71.73
2017-11-09T11:20:27.297Z,62.93
2017-11-09T11:22:53.583Z,66.57
2017-11-09T11:25:19.915Z,65.40
2017-11-09T11:27:46.248Z,58.43
2017-11-09T11:30:12.558Z,51.03
2017-11-09T11:32:39.582Z,56.00
2017-11-09T11:35:05.923Z,56.47
2017-11-09T11:37:32.275Z,51.80
2017-11-09T11:39:59.337Z,56.43
2017-11-09T11:42:25.785Z,55.10
2017-11-09T11:44:52.102Z,57.37
2017-11-09T11:47:18.438Z,49.23
2017-11-09T11:49:44.738Z,51.87
2017-11-09T11:52:11.923Z,49.40
2017-11-09T11:54:38.224Z,42.43
2017-11-09T11:57:05.310Z,59.60
2017-11-09T11:59:31.829Z,53.00
2017-11-09T12:01:58.157Z,55.37
2017-11-09T12:04:24.436Z,54.93
2017-11-09T12:06:50.758Z,59.77
2017-11-09T12:09:17.080Z,58.27
2017-11-09T12:11:47.309Z,59.63
2017-11-09T12:14:13.632Z,56.53
2017-11-09T12:16:40.005Z,51.87
2017-11-09T12:19:07.059Z,60.07
2017-11-09T12:21:34.092Z,55.70
2017-11-09T12:24:01.181Z,51.07
2017-11-09T12:26:27.688Z,50.00
2017-11-09T12:28:54.768Z,51.70
2017-11-09T12:31:21.162Z,55.10
2017-11-09T12:33:48.183Z,58.57
2017-11-09T12:36:14.574Z,57.50
2017-11-09T12:38:40.870Z,48.60
2017-11-09T12:41:08.226Z,53.77
2017-11-09T12:43:35.303Z,49.30
2017-11-09T12:46:01.670Z,48.70
2017-11-09T12:48:27.957Z,52.40
2017-11-09T12:50:54.295Z,44.50
2017-11-09T12:53:20.614Z,51.43
2017-11-09T12:55:46.909Z,52.03
2017-11-09T12:58:13.965Z,52.90
2017-11-09T13:00:41.027Z,49.03
2017-11-09T13:03:07.357Z,59.13
2017-11-09T13:05:34.426Z,56.23
2017-11-09T13:08:00.746Z,56.57
2017-11-09T13:10:27.098Z,49.60
2017-11-09T13:12:53.460Z,46.33
2017-11-09T13:15:19.935Z,59.40
2017-11-09T13:17:46.456Z,48.90
2017-11-09T13:20:13.518Z,48.97
2017-11-09T13:22:39.863Z,50.30
2017-11-09T13:25:06.229Z,48.10
2017-11-09T13:27:32.617Z,47.63
2017-11-09T13:29:58.929Z,47.77
2017-11-09T13:32:26.104Z,53.20
2017-11-09T13:34:52.487Z,55.93
2017-11-09T13:37:18.800Z,53.03
2017-11-09T13:39:45.122Z,52.13
2017-11-09T13:42:11.476Z,50.77
2017-11-09T13:44:37.806Z,49.50
2017-11-09T13:47:04.110Z,54.93
2017-11-09T13:49:30.445Z,47.03
2017-11-09T13:51:56.818Z,47.50
2017-11-09T13:54:23.869Z,46.93
2017-11-09T13:56:50.942Z,49.63
2017-11-09T13:59:17.286Z,56.17
2017-11-09T14:01:43.601Z,61.50
2017-11-09T14:04:09.917Z,45.20
2017-11-09T14:06:36.258Z,59.07
2017-11-09T14:09:02.561Z,48.27
2017-11-09T14:11:29.838Z,53.57
2017-11-09T14:13:56.126Z,54.80
2017-11-09T14:16:22.463Z,48.73
2017-11-09T14:18:48.780Z,57.20
2017-11-09T14:21:15.115Z,55.20
2017-11-09T14:23:41.434Z,52.60
2017-11-09T14:26:07.765Z,55.77
2017-11-09T14:28:36.017Z,57.93
2017-11-09T14:31:02.351Z,50.10
2017-11-09T14:33:28.681Z,51.23
2017-11-09T14:35:55.048Z,49.40
2017-11-09T14:38:21.539Z,53.53
2017-11-09T14:40:47.869Z,52.73
2017-11-09T14:43:14.366Z,59.00
2017-11-09T14:45:41.429Z,51.93
2017-11-09T14:48:07.767Z,60.80
2017-11-09T14:50:34.122Z,55.40
2017-11-09T14:53:00.426Z,53.37
2017-11-09T14:55:26.758Z,63.17
2017-11-09T14:57:53.117Z,59.20
2017-11-09T15:00:19.437Z,53.70
2017-11-09T15:02:45.782Z,57.50
2017-11-09T15:05:12.159Z,51.37
2017-11-09T15:07:39.206Z,54.20
2017-11-09T15:10:06.279Z,51.53
2017-11-09T15:12:32.576Z,59.53
2017-11-09T15:14:58.921Z,55.70
2017-11-09T15:17:26.029Z,56.50
2017-11-09T15:19:52.345Z,51.87
2017-11-09T15:22:18.678Z,55.10
2017-11-09T15:24:45.793Z,53.27
2017-11-09T15:27:12.149Z,50.50
2017-11-09T15:29:38.453Z,52.07
2017-11-09T15:32:10.678Z,56.77
2017-11-09T15:34:36.988Z,50.47
2017-11-09T15:37:03.409Z,53.00
2017-11-09T15:39:29.710Z,52.60
2017-11-09T15:41:56.062Z,52.83
2017-11-09T15:44:22.368Z,52.17
2017-11-09T15:46:48.682Z,52.07
2017-11-09T15:49:15.802Z,49.63
2017-11-09T15:51:42.149Z,54.30
2017-11-09T15:54:08.447Z,56.67
2017-11-09T15:56:34.749Z,59.27
2017-11-09T15:59:01.092Z,54.60
2017-11-09T16:01:27.411Z,49.73
2017-11-09T16:03:53.794Z,58.63
2017-11-09T16:06:20.139Z,49.23
2017-11-09T16:08:47.234Z,58.43
2017-11-09T16:11:13.694Z,53.93
2017-11-09T16:13:40.694Z,47.93
2017-11-09T16:16:07.009Z,54.80
2017-11-09T16:18:36.987Z,54.67
2017-11-09T16:21:03.506Z,50.00
2017-11-09T16:23:29.861Z,48.93
2017-11-09T16:25:56.180Z,52.33
2017-11-09T16:28:23.994Z,52.23
2017-11-09T16:30:50.492Z,47.80
2017-11-09T16:33:16.833Z,53.57
2017-11-09T16:35:43.157Z,48.53
2017-11-09T16:38:09.506Z,42.80
2017-11-09T16:40:35.879Z,47.20
2017-11-09T16:43:02.247Z,41.37
2017-11-09T16:45:28.651Z,49.57
2017-11-09T16:47:54.990Z,49.20
2017-11-09T16:50:21.289Z,53.77
2017-11-09T16:52:53.870Z,52.03
2017-11-09T16:55:20.255Z,58.93
2017-11-09T16:57:46.610Z,54.10
2017-11-09T17:00:12.938Z,54.13
2017-11-09T17:02:39.984Z,55.90
2017-11-09T17:05:07.136Z,45.97
2017-11-09T17:07:34.198Z,43.87
2017-11-09T17:10:00.565Z,46.33
2017-11-09T17:12:26.920Z,43.63
2017-11-09T17:14:59.416Z,49.43
2017-11-09T17:17:26.543Z,47.33
2017-11-09T17:19:52.847Z,39.77
2017-11-09T17:22:20.150Z,52.43
2017-11-09T17:24:47.251Z,49.37
2017-11-09T17:27:13.568Z,49.03
2017-11-09T17:29:39.973Z,50.27
2017-11-09T17:32:06.341Z,50.00
2017-11-09T17:34:32.674Z,49.37
2017-11-09T17:36:59.005Z,45.13
2017-11-09T17:39:25.543Z,58.23
2017-11-09T17:41:52.750Z,50.83
2017-11-09T17:44:19.108Z,50.63
2017-11-09T17:46:45.386Z,54.20
2017-11-09T17:49:11.714Z,52.87
2017-11-09T17:51:38.115Z,48.83
2017-11-09T17:54:04.659Z,50.70
2017-11-09T17:56:30.998Z,63.40
2017-11-09T17:59:01.268Z,52.40
2017-11-09T18:01:27.926Z,57.67
2017-11-09T18:03:54.230Z,55.77
2017-11-09T18:06:20.579Z,52.30
2017-11-09T18:08:46.912Z,54.87
2017-11-09T18:11:13.246Z,57.00
2017-11-09T18:13:39.556Z,52.30
2017-11-09T18:16:06.000Z,60.73
2017-11-09T18:18:32.490Z,55.17
2017-11-09T18:20:58.858Z,56.70
2017-11-09T18:23:25.194Z,61.47
2017-11-09T18:25:51.511Z,69.60
2017-11-09T18:28:17.842Z,61.73
2017-11-09T18:30:44.186Z,55.30
2017-11-09T18:33:10.553Z,56.27
2017-11-09T18:35:36.883Z,61.80
2017-11-09T18:38:03.267Z,55.87
2017-11-09T18:40:29.620Z,62.27
2017-11-09T18:42:56.085Z,67.40
2017-11-09T18:45:22.422Z,65.77
2017-11-09T18:47:48.915Z,75.60
2017-11-09T18:50:15.331Z,66.77
2017-11-09T18:52:41.728Z,60.20
2017-11-09T18:55:08.163Z,65.90
2017-11-09T18:57:34.478Z,60.33
2017-11-09T19:00:00.896Z,68.53
2017-11-09T19:02:27.243Z,79.03
2017-11-09T19:04:53.652Z,65.53
2017-11-09T19:07:19.984Z,65.70
2017-11-09T19:09:46.360Z,66.70
2017-11-09T19:12:13.556Z,57.60
2017-11-09T19:14:39.864Z,63.63
2017-11-09T19:17:06.165Z,68.20
2017-11-09T19:19:33.275Z,62.23
2017-11-09T19:21:59.647Z,60.20
2017-11-09T19:24:26.774Z,55.30
2017-11-09T19:26:53.123Z,68.80
2017-11-09T19:29:19.463Z,66.63
2017-11-09T19:31:46.790Z,61.10
2017-11-09T19:34:13.127Z,57.10
2017-11-09T19:36:39.530Z,61.10
2017-11-09T19:39:05.914Z,66.00
2017-11-09T19:41:32.954Z,66.10
2017-11-09T19:44:00.027Z,56.93
2017-11-09T19:46:26.362Z,67.83
2017-11-09T19:48:52.692Z,70.30
2017-11-09T19:51:19.058Z,61.13
2017-11-09T19:53:45.416Z,59.83
2017-11-09T19:56:11.757Z,58.03
2017-11-09T19:58:38.828Z,59.20
2017-11-09T20:01:05.143Z,62.97
2017-11-09T20:03:32.224Z,55.57
2017-11-09T20:05:58.560Z,54.83
2017-11-09T20:08:25.554Z,52.10
2017-11-09T20:10:52.628Z,44.07
2017-11-09T20:13:19.022Z,47.13
2017-11-09T20:15:45.350Z,46.83
2017-11-09T20:18:11.706Z,41.50
2017-11-09T20:20:38.844Z,46.10
2017-11-09T20:23:06.020Z,41.57
2017-11-09T20:25:32.546Z,40.30
2017-11-09T20:27:58.940Z,39.23
2017-11-09T20:30:26.311Z,41.83
2017-11-09T20:32:52.680Z,36.00
2017-11-09T20:35:19.013Z,36.77
2017-11-09T20:37:45.344Z,34.80
2017-11-09T20:40:11.855Z,34.13
2017-11-09T20:42:38.939Z,34.87
2017-11-09T20:45:05.372Z,33.23
2017-11-09T20:47:31.740Z,31.73
2017-11-09T20:50:00.931Z,30.00
2017-11-09T20:52:27.293Z,32.83
2017-11-09T20:54:54.401Z,31.00
2017-11-09T20:57:21.355Z,26.87
2017-11-09T20:59:47.675Z,30.30
2017-11-09T21:02:14.060Z,35.00
2017-11-09T21:04:40.385Z,33.83
2017-11-09T21:07:14.419Z,33.13
2017-11-09T21:09:40.761Z,29.00
2017-11-09T21:12:07.156Z,29.90
2017-11-09T21:14:33.492Z,31.03
2017-11-09T21:16:59.856Z,28.80
2017-11-09T21:19:26.434Z,28.90
2017-11-09T21:21:53.619Z,27.53
2017-11-09T21:24:19.966Z,33.30
2017-11-09T21:26:46.537Z,27.30
2017-11-09T21:29:12.869Z,26.43
2017-11-09T21:31:39.208Z,29.63
2017-11-09T21:34:05.584Z,34.93
2017-11-09T21:36:31.985Z,30.10
2017-11-09T21:38:59.103Z,31.63
2017-11-09T21:41:25.465Z,25.50
2017-11-09T21:43:52.519Z,33.87
2017-11-09T21:46:20.483Z,25.70
2017-11-09T21:48:47.575Z,27.27
2017-11-09T21:51:14.036Z,29.63
2017-11-09T21:53:40.424Z,47.13
2017-11-09T21:56:06.732Z,27.40
2017-11-09T21:58:32.999Z,28.93
2017-11-09T22:00:59.365Z,26.70
2017-11-09T22:03:25.758Z,24.93
2017-11-09T22:05:52.080Z,29.27
2017-11-09T22:08:18.475Z,26.77
2017-11-09T22:10:44.786Z,28.37
2017-11-09T22:13:11.132Z,26.90
2017-11-09T22:15:37.595Z,26.20
2017-11-09T22:18:03.881Z,29.33
2017-11-09T22:20:30.206Z,30.70
2017-11-09T22:22:56.504Z,29.50
2017-11-09T22:25:22.802Z,26.87
2017-11-09T22:27:50.021Z,31.07
2017-11-09T22:30:16.343Z,27.83
2017-11-09T22:32:42.659Z,28.90
2017-11-09T22:35:08.996Z,26.00
2017-11-09T22:37:35.342Z,36.43
2017-11-09T22:40:01.682Z,26.50
2017-11-09T22:42:28.062Z,28.33
2017-11-09T22:44:54.375Z,31.87
2017-11-09T22:47:20.701Z,31.70
2017-11-09T22:49:47.833Z,27.47
2017-11-09T22:52:14.906Z,27.53
2017-11-09T22:54:41.268Z,28.03
2017-11-09T22:57:07.789Z,30.57
2017-11-09T22:59:34.236Z,28.70
2017-11-09T23:02:00.559Z,32.03
2017-11-09T23:04:26.882Z,28.53
2017-11-09T23:06:53.223Z,30.27
2017-11-09T23:09:19.543Z,28.87
2017-11-09T23:11:45.875Z,33.57
2017-11-09T23:14:12.179Z,33.50
2017-11-09T23:16:38.485Z,29.87
2017-11-09T23:19:04.806Z,38.10
2017-11-09T23:21:31.921Z,29.50
2017-11-09T23:23:58.262Z,31.47
2017-11-09T23:26:24.607Z,29.00
2017-11-09T23:28:50.969Z,31.50
2017-11-09T23:31:18.122Z,30.30
2017-11-09T23:33:45.210Z,26.83
2017-11-09T23:36:11.514Z,28.87
2017-11-09T23:38:37.877Z,34.00
2017-11-09T23:41:04.317Z,30.33
2017-11-09T23:43:30.613Z,31.83
2017-11-09T23:45:56.941Z,31.53
2017-11-09T23:48:23.260Z,30.00
2017-11-09T23:50:49.584Z,30.20
2017-11-09T23:53:16.614Z,36.27
2017-11-09T23:55:42.938Z,32.47
2017-11-09T23:58:09.273Z,33.60
